createdAt,value
2024-03-12T00:01:36.929Z,97884.53
2024-03-12T00:04:05.239Z,97892.59
2024-03-12T00:06:33.272Z,97891.59
2024-03-12T00:09:01.118Z,97890.41
2024-03-12T00:11:29.227Z,97902.22
2024-03-12T00:13:57.556Z,97901.97
2024-03-12T00:16:25.832Z,97903.72
2024-03-12T00:18:56.516Z,97901.81
2024-03-12T00:21:24.910Z,97903.34
2024-03-12T00:23:53.776Z,97904.28
2024-03-12T00:26:21.796Z,97905.03
2024-03-12T00:28:49.877Z,97903.81
2024-03-12T00:31:17.950Z,97911.31
2024-03-12T00:33:48.790Z,97904.06
2024-03-12T00:36:18.009Z,97914.19
2024-03-12T00:38:47.996Z,97911.59
2024-03-12T00:41:16.010Z,97894.78
2024-03-12T00:43:44.266Z,97900.09
2024-03-12T00:46:12.427Z,97903.00
2024-03-12T00:48:40.707Z,97902.94
2024-03-12T00:51:10.057Z,97907.50
2024-03-12T00:53:38.156Z,97902.66
2024-03-12T00:56:06.051Z,97905.56
2024-03-12T00:58:35.199Z,97901.16
2024-03-12T01:01:04.844Z,97898.91
2024-03-12T01:03:33.178Z,97902.78
2024-03-12T01:06:01.110Z,97911.66
2024-03-12T01:08:30.123Z,97905.84
2024-03-12T01:10:59.894Z,97910.75
2024-03-12T01:13:29.198Z,97906.81
2024-03-12T01:15:58.635Z,97910.75
2024-03-12T01:18:26.786Z,97913.91
2024-03-12T01:20:54.685Z,97915.53
2024-03-12T01:23:22.888Z,97910.31
2024-03-12T01:25:50.818Z,97908.31
2024-03-12T01:28:19.144Z,97917.41
2024-03-12T01:30:47.392Z,97923.53
2024-03-12T01:33:15.553Z,97920.16
2024-03-12T01:35:46.172Z,97930.09
2024-03-12T01:38:15.182Z,97931.66
2024-03-12T01:40:43.521Z,97932.44
2024-03-12T01:43:14.120Z,97936.75
2024-03-12T01:45:43.801Z,97932.19
2024-03-12T01:48:12.855Z,97932.03
2024-03-12T01:50:41.667Z,97936.00
2024-03-12T01:53:10.927Z,97936.00
2024-03-12T01:55:44.693Z,97942.03
2024-03-12T01:58:17.712Z,97948.81
2024-03-12T02:00:47.556Z,97958.28
2024-03-12T02:03:20.530Z,97957.63
2024-03-12T02:05:49.012Z,97966.13
2024-03-12T02:08:18.441Z,97968.16
2024-03-12T02:10:47.047Z,97973.53
2024-03-12T02:13:15.728Z,97977.41
2024-03-12T02:15:44.509Z,97978.16
2024-03-12T02:18:13.087Z,97974.47
2024-03-12T02:20:41.161Z,97973.28
2024-03-12T02:23:09.377Z,97980.06
2024-03-12T02:25:37.239Z,97980.84
2024-03-12T02:28:05.852Z,97977.16
2024-03-12T02:30:34.012Z,97986.38
2024-03-12T02:33:04.226Z,97982.00
2024-03-12T02:35:35.922Z,97991.88
2024-03-12T02:38:04.288Z,97992.91
2024-03-12T02:40:32.276Z,97995.53
2024-03-12T02:43:00.441Z,98000.16
2024-03-12T02:45:29.224Z,97999.94
2024-03-12T02:47:57.393Z,97989.63
2024-03-12T02:50:25.768Z,97997.75
2024-03-12T02:52:53.725Z,97989.41
2024-03-12T02:55:21.845Z,97987.19
2024-03-12T02:57:49.877Z,97991.50
2024-03-12T03:00:18.665Z,97994.31
2024-03-12T03:02:49.903Z,98001.44
2024-03-12T03:05:17.987Z,98005.00
2024-03-12T03:07:46.229Z,98009.47
2024-03-12T03:10:14.724Z,98008.66
2024-03-12T03:12:43.509Z,98016.78
2024-03-12T03:15:14.783Z,98011.41
2024-03-12T03:17:44.123Z,98011.09
2024-03-12T03:20:13.806Z,98016.63
2024-03-12T03:22:44.776Z,98021.16
2024-03-12T03:25:16.187Z,98027.22
2024-03-12T03:27:44.603Z,98029.84
2024-03-12T03:30:19.686Z,98024.06
2024-03-12T03:32:49.456Z,98036.69
2024-03-12T03:35:19.850Z,98045.72
2024-03-12T03:37:47.973Z,98040.34
2024-03-12T03:40:24.523Z,98044.09
2024-03-12T03:42:54.397Z,98047.91
2024-03-12T03:45:24.851Z,98038.13
2024-03-12T03:47:52.833Z,98041.91
2024-03-12T03:50:21.082Z,98040.19
2024-03-12T03:52:49.271Z,98038.81
2024-03-12T03:55:17.854Z,98042.50
2024-03-12T03:57:46.465Z,98043.50
2024-03-12T04:00:14.817Z,98045.31
2024-03-12T04:02:45.832Z,98049.28
2024-03-12T04:05:14.182Z,98059.19
2024-03-12T04:07:42.487Z,98062.66
2024-03-12T04:10:12.412Z,98063.94
2024-03-12T04:12:44.064Z,98062.47
2024-03-12T04:15:14.098Z,98068.47
2024-03-12T04:17:44.966Z,98064.44
2024-03-12T04:20:13.613Z,98065.66
2024-03-12T04:22:44.789Z,98072.91
2024-03-12T04:25:14.776Z,98072.63
2024-03-12T04:27:43.080Z,98077.78
2024-03-12T04:30:12.454Z,98084.59
2024-03-12T04:32:41.830Z,98084.13
2024-03-12T04:35:11.356Z,98090.69
2024-03-12T04:37:40.105Z,98088.38
2024-03-12T04:40:08.924Z,98089.78
2024-03-12T04:42:38.605Z,98088.13
2024-03-12T04:45:08.316Z,98087.53
2024-03-12T04:47:39.014Z,98099.47
2024-03-12T04:50:09.345Z,98105.28
2024-03-12T04:52:37.650Z,98108.91
2024-03-12T04:55:06.817Z,98106.81
2024-03-12T04:57:37.180Z,98114.66
2024-03-12T05:00:16.066Z,98121.22
2024-03-12T05:02:48.390Z,98126.44
2024-03-12T05:05:20.552Z,98147.47
2024-03-12T05:07:49.359Z,98136.50
2024-03-12T05:10:22.440Z,98148.06
2024-03-12T05:12:53.667Z,98150.38
2024-03-12T05:15:22.794Z,98150.97
2024-03-12T05:17:51.135Z,98149.75
2024-03-12T05:20:23.946Z,98157.78
2024-03-12T05:22:52.315Z,98161.06
2024-03-12T05:25:24.112Z,98158.22
2024-03-12T05:27:52.596Z,98162.53
2024-03-12T05:30:23.264Z,98165.22
2024-03-12T05:32:54.909Z,98170.81
2024-03-12T05:35:24.253Z,98172.22
2024-03-12T05:38:13.114Z,98179.91
2024-03-12T05:40:45.201Z,98180.91
2024-03-12T05:43:33.161Z,98183.16
2024-03-12T05:46:20.283Z,98182.63
2024-03-12T05:48:51.901Z,98175.56
2024-03-12T05:51:21.060Z,98189.16
2024-03-12T05:53:49.876Z,98193.72
2024-03-12T05:56:19.555Z,98189.16
2024-03-12T05:58:48.578Z,98196.63
2024-03-12T06:01:17.079Z,98193.66
2024-03-12T06:03:45.788Z,98198.22
2024-03-12T06:06:14.112Z,98204.41
2024-03-12T06:08:42.422Z,98209.41
2024-03-12T06:11:10.351Z,98207.75
2024-03-12T06:13:39.567Z,98214.28
2024-03-12T06:16:08.647Z,98206.06
2024-03-12T06:18:37.170Z,98217.16
2024-03-12T06:21:07.065Z,98214.91
2024-03-12T06:23:36.753Z,98211.81
2024-03-12T06:26:06.184Z,98206.66
2024-03-12T06:28:35.807Z,98218.44
2024-03-12T06:31:05.524Z,98219.22
2024-03-12T06:33:34.655Z,98225.44
2024-03-12T06:36:03.352Z,98220.91
2024-03-12T06:38:31.604Z,98235.78
2024-03-12T06:40:59.824Z,98238.19
2024-03-12T06:43:28.112Z,98251.34
2024-03-12T06:45:56.180Z,98246.69
2024-03-12T06:48:24.148Z,98261.75
2024-03-12T06:50:52.231Z,98259.88
2024-03-12T06:53:21.197Z,98259.50
2024-03-12T06:55:49.061Z,98250.38
2024-03-12T06:58:20.537Z,98266.03
2024-03-12T07:00:52.038Z,98250.09
2024-03-12T07:03:23.394Z,98244.34
2024-03-12T07:05:54.102Z,98253.19
2024-03-12T07:08:26.548Z,98260.06
2024-03-12T07:10:56.549Z,98255.47
2024-03-12T07:13:27.249Z,98269.00
2024-03-12T07:15:55.589Z,98274.81
2024-03-12T07:18:24.724Z,98281.47
2024-03-12T07:20:56.477Z,98288.25
2024-03-12T07:23:24.722Z,98288.09
2024-03-12T07:25:52.971Z,98292.88
2024-03-12T07:28:24.732Z,98289.75
2024-03-12T07:30:53.620Z,98301.13
2024-03-12T07:33:22.076Z,98298.28
2024-03-12T07:35:50.220Z,98295.94
2024-03-12T07:38:19.043Z,98299.00
2024-03-12T07:40:47.200Z,98300.94
2024-03-12T07:43:15.497Z,98302.72
2024-03-12T07:45:47.668Z,98312.16
2024-03-12T07:48:15.781Z,98308.78
2024-03-12T07:50:44.868Z,98301.75
2024-03-12T07:53:13.709Z,98309.16
2024-03-12T07:55:44.743Z,98313.59
2024-03-12T07:58:13.702Z,98307.78
2024-03-12T08:00:42.293Z,98313.34
2024-03-12T08:03:12.887Z,98310.66
2024-03-12T08:05:41.480Z,98311.75
2024-03-12T08:08:09.561Z,98312.22
2024-03-12T08:10:37.664Z,98326.41
2024-03-12T08:13:09.393Z,98316.03
2024-03-12T08:15:38.494Z,98326.06
2024-03-12T08:18:13.475Z,98325.03
2024-03-12T08:20:48.516Z,98331.25
2024-03-12T08:23:16.576Z,98333.13
2024-03-12T08:25:55.643Z,98327.25
2024-03-12T08:28:27.951Z,98334.13
2024-03-12T08:31:00.073Z,98331.16
2024-03-12T08:33:33.302Z,98336.94
2024-03-12T08:36:02.449Z,98332.31
2024-03-12T08:38:30.312Z,98335.34
2024-03-12T08:40:58.458Z,98332.50
2024-03-12T08:43:26.465Z,98330.78
2024-03-12T08:45:54.471Z,98331.44
2024-03-12T08:48:22.919Z,98333.53
2024-03-12T08:50:51.009Z,98330.63
2024-03-12T08:53:19.107Z,98336.56
2024-03-12T08:55:47.068Z,98336.69
2024-03-12T08:58:15.334Z,98336.97
2024-03-12T09:00:43.732Z,98338.19
2024-03-12T09:03:12.066Z,98346.41
2024-03-12T09:05:41.690Z,98349.09
2024-03-12T09:08:10.763Z,98348.59
2024-03-12T09:10:39.079Z,98353.56
2024-03-12T09:13:07.150Z,98355.53
2024-03-12T09:15:35.897Z,98351.75
2024-03-12T09:18:07.693Z,98365.22
2024-03-12T09:20:37.907Z,98369.72
2024-03-12T09:23:06.375Z,98371.00
2024-03-12T09:25:34.653Z,98366.69
2024-03-12T09:28:06.085Z,98372.84
2024-03-12T09:30:35.761Z,98376.00
2024-03-12T09:33:05.374Z,98375.09
2024-03-12T09:35:33.828Z,98372.81
2024-03-12T09:38:02.196Z,98372.41
2024-03-12T09:40:31.095Z,98377.94
2024-03-12T09:43:01.488Z,98380.34
2024-03-12T09:45:30.616Z,98381.34
2024-03-12T09:47:58.611Z,98383.88
2024-03-12T09:50:30.495Z,98380.13
2024-03-12T09:53:00.796Z,98378.91
2024-03-12T09:55:29.940Z,98375.44
2024-03-12T09:57:57.908Z,98385.38
2024-03-12T10:00:29.586Z,98385.81
2024-03-12T10:03:00.847Z,98388.28
2024-03-12T10:05:33.332Z,98391.22
2024-03-12T10:08:15.978Z,98384.19
2024-03-12T10:10:46.216Z,98391.44
2024-03-12T10:13:16.199Z,98385.75
2024-03-12T10:15:58.138Z,98384.25
2024-03-12T10:18:28.339Z,98390.00
2024-03-12T10:21:02.552Z,98382.97
2024-03-12T10:23:37.142Z,98397.81
2024-03-12T10:26:17.419Z,98387.75
2024-03-12T10:28:47.051Z,98393.22
2024-03-12T10:31:16.044Z,98391.69
2024-03-12T10:33:49.534Z,98398.31
2024-03-12T10:36:32.543Z,98389.34
2024-03-12T10:39:00.844Z,98391.84
2024-03-12T10:41:29.737Z,98393.38
2024-03-12T10:44:08.924Z,98393.47
2024-03-12T10:46:40.269Z,98393.38
2024-03-12T10:49:14.134Z,98386.28
2024-03-12T10:51:44.352Z,98397.19
2024-03-12T10:54:18.024Z,98389.50
2024-03-12T10:56:51.310Z,98388.53
2024-03-12T10:59:21.163Z,98395.09
2024-03-12T11:01:49.645Z,98393.72
2024-03-12T11:04:19.067Z,98402.03
2024-03-12T11:06:49.411Z,98397.13
2024-03-12T11:09:23.382Z,98384.56
2024-03-12T11:11:51.703Z,98398.72
2024-03-12T11:14:20.326Z,98392.50
2024-03-12T11:16:48.332Z,98396.22
2024-03-12T11:19:20.827Z,98392.19
2024-03-12T11:21:50.768Z,98395.19
2024-03-12T11:24:46.021Z,98389.84
2024-03-12T11:27:20.629Z,98387.97
2024-03-12T11:30:15.754Z,98382.97
2024-03-12T11:32:51.561Z,98375.44
2024-03-12T11:35:19.484Z,98381.88
2024-03-12T11:38:11.452Z,98374.28
2024-03-12T11:40:48.921Z,98375.78
2024-03-12T11:43:46.162Z,98384.56
2024-03-12T11:46:40.884Z,98372.25
2024-03-12T11:49:34.878Z,98377.88
2024-03-12T11:52:02.872Z,98364.06
2024-03-12T11:54:41.142Z,98366.78
2024-03-12T11:57:31.186Z,98363.94
2024-03-12T12:00:00.460Z,98355.41
2024-03-12T12:02:28.626Z,98361.13
2024-03-12T12:04:59.211Z,98365.72
2024-03-12T12:07:29.136Z,98358.59
2024-03-12T12:09:57.373Z,98354.81
2024-03-12T12:12:28.146Z,98351.38
2024-03-12T12:14:56.237Z,98343.78
2024-03-12T12:17:25.894Z,98350.78
2024-03-12T12:20:17.438Z,98348.28
2024-03-12T12:22:51.382Z,98354.56
2024-03-12T12:25:20.681Z,98359.03
2024-03-12T12:27:49.183Z,98354.41
2024-03-12T12:30:21.898Z,98346.56
2024-03-12T12:32:52.918Z,98350.66
2024-03-12T12:35:22.161Z,98350.72
2024-03-12T12:37:51.867Z,98338.53
2024-03-12T12:40:22.344Z,98339.00
2024-03-12T12:42:52.024Z,98335.94
2024-03-12T12:45:20.545Z,98343.34
2024-03-12T12:47:50.468Z,98341.22
2024-03-12T12:50:28.144Z,98337.84
2024-03-12T12:53:02.207Z,98339.13
2024-03-12T12:55:33.532Z,98333.78
2024-03-12T12:58:03.783Z,98330.94
2024-03-12T13:00:45.495Z,98331.41
2024-03-12T13:03:18.921Z,98334.72
2024-03-12T13:05:48.143Z,98339.94
2024-03-12T13:08:30.969Z,98340.94
2024-03-12T13:11:06.178Z,98334.72
2024-03-12T13:13:36.462Z,98331.69
2024-03-12T13:16:26.967Z,98340.00
2024-03-12T13:18:59.995Z,98331.31
2024-03-12T13:21:28.704Z,98335.06
2024-03-12T13:23:56.957Z,98332.72
2024-03-12T13:26:24.859Z,98333.44
2024-03-12T13:28:55.425Z,98337.22
2024-03-12T13:31:24.384Z,98333.06
2024-03-12T13:33:55.074Z,98330.00
2024-03-12T13:36:26.300Z,98333.81
2024-03-12T13:38:55.010Z,98326.63
2024-03-12T13:41:26.356Z,98335.38
2024-03-12T13:43:56.340Z,98335.16
2024-03-12T13:46:24.334Z,98325.91
2024-03-12T13:48:59.082Z,98330.72
2024-03-12T13:51:27.020Z,98327.75
2024-03-12T13:53:55.893Z,98334.44
2024-03-12T13:56:23.734Z,98333.63
2024-03-12T13:58:53.415Z,98334.25
2024-03-12T14:01:21.992Z,98337.44
2024-03-12T14:03:53.063Z,98338.03
2024-03-12T14:06:21.209Z,98336.50
2024-03-12T14:08:50.917Z,98334.53
2024-03-12T14:11:19.304Z,98335.91
2024-03-12T14:13:51.113Z,98339.88
2024-03-12T14:16:23.401Z,98331.44
2024-03-12T14:18:53.646Z,98327.34
2024-03-12T14:21:22.489Z,98332.72
2024-03-12T14:23:51.294Z,98332.94
2024-03-12T14:26:20.246Z,98337.38
2024-03-12T14:28:48.298Z,98328.25
2024-03-12T14:31:16.288Z,98332.38
2024-03-12T14:33:44.717Z,98334.50
2024-03-12T14:36:12.646Z,98328.94
2024-03-12T14:38:41.282Z,98334.84
2024-03-12T14:41:09.328Z,98334.84
2024-03-12T14:43:37.407Z,98334.69
2024-03-12T14:46:06.194Z,98342.72
2024-03-12T14:48:35.513Z,98333.06
2024-03-12T14:51:03.711Z,98344.00
2024-03-12T14:53:31.956Z,98344.34
2024-03-12T14:56:02.719Z,98355.31
2024-03-12T14:58:31.505Z,98352.44
2024-03-12T15:00:59.533Z,98344.03
2024-03-12T15:03:27.867Z,98350.09
2024-03-12T15:05:56.784Z,98349.88
2024-03-12T15:08:25.053Z,98357.00
2024-03-12T15:10:53.172Z,98354.06
2024-03-12T15:13:21.885Z,98357.16
2024-03-12T15:15:51.059Z,98361.59
2024-03-12T15:18:21.416Z,98364.22
2024-03-12T15:20:49.781Z,98367.75
2024-03-12T15:23:17.729Z,98364.31
2024-03-12T15:25:45.848Z,98374.03
2024-03-12T15:28:13.935Z,98375.00
2024-03-12T15:30:43.840Z,98374.44
2024-03-12T15:33:13.615Z,98369.00
2024-03-12T15:35:42.531Z,98370.28
2024-03-12T15:38:10.793Z,98370.78
2024-03-12T15:40:38.694Z,98379.94
2024-03-12T15:43:07.010Z,98374.06
2024-03-12T15:45:35.988Z,98379.69
2024-03-12T15:48:09.230Z,98381.81
2024-03-12T15:50:39.424Z,98386.16
2024-03-12T15:53:07.772Z,98390.50
2024-03-12T15:55:36.762Z,98391.66
2024-03-12T15:58:05.249Z,98393.19
2024-03-12T16:00:35.294Z,98391.31
2024-03-12T16:03:04.353Z,98398.34
2024-03-12T16:05:32.305Z,98397.25
2024-03-12T16:08:04.509Z,98398.66
2024-03-12T16:10:33.603Z,98397.13
2024-03-12T16:13:06.505Z,98395.97
2024-03-12T16:15:34.803Z,98406.72
2024-03-12T16:18:04.032Z,98408.97
2024-03-12T16:20:31.935Z,98411.44
2024-03-12T16:22:59.868Z,98418.25
2024-03-12T16:25:27.835Z,98418.59
2024-03-12T16:27:55.883Z,98421.63
2024-03-12T16:30:23.785Z,98419.06
2024-03-12T16:32:51.738Z,98422.19
2024-03-12T16:35:19.692Z,98429.63
2024-03-12T16:37:47.656Z,98429.69
2024-03-12T16:40:16.192Z,98431.00
2024-03-12T16:42:44.602Z,98434.47
2024-03-12T16:45:13.516Z,98427.06
2024-03-12T16:47:43.890Z,98429.19
2024-03-12T16:50:16.045Z,98436.34
2024-03-12T16:52:44.769Z,98438.63
2024-03-12T16:55:13.370Z,98427.44
2024-03-12T16:57:42.078Z,98442.38
2024-03-12T17:00:15.763Z,98436.63
2024-03-12T17:02:44.553Z,98444.38
2024-03-12T17:05:18.098Z,98448.53
2024-03-12T17:07:53.117Z,98445.53
2024-03-12T17:10:23.461Z,98456.84
2024-03-12T17:12:52.565Z,98451.25
2024-03-12T17:15:21.965Z,98454.91
2024-03-12T17:17:50.734Z,98454.66
2024-03-12T17:20:18.739Z,98456.19
2024-03-12T17:22:48.049Z,98463.78
2024-03-12T17:25:20.018Z,98473.13
2024-03-12T17:27:50.208Z,98471.13
2024-03-12T17:30:18.330Z,98481.47
2024-03-12T17:32:47.789Z,98485.84
2024-03-12T17:35:16.688Z,98483.06
2024-03-12T17:37:47.982Z,98490.88
2024-03-12T17:40:16.394Z,98493.22
2024-03-12T17:42:46.357Z,98494.44
2024-03-12T17:45:16.421Z,98493.75
2024-03-12T17:47:50.831Z,98497.69
2024-03-12T17:50:21.956Z,98500.97
2024-03-12T17:52:52.504Z,98497.47
2024-03-12T17:55:22.833Z,98507.72
2024-03-12T17:57:52.274Z,98498.09
2024-03-12T18:00:22.399Z,98507.22
2024-03-12T18:02:51.323Z,98510.19
2024-03-12T18:05:23.331Z,98513.84
2024-03-12T18:07:54.602Z,98510.63
2024-03-12T18:10:27.038Z,98514.31
2024-03-12T18:12:55.475Z,98520.16
2024-03-12T18:15:25.130Z,98525.94
2024-03-12T18:17:54.158Z,98532.16
2024-03-12T18:20:31.441Z,98530.81
2024-03-12T18:22:59.823Z,98531.41
2024-03-12T18:25:28.102Z,98532.03
2024-03-12T18:27:57.518Z,98538.72
2024-03-12T18:30:26.773Z,98532.47
2024-03-12T18:32:55.527Z,98537.75
2024-03-12T18:35:25.196Z,98549.88
2024-03-12T18:37:53.243Z,98555.56
2024-03-12T18:40:23.682Z,98553.47
2024-03-12T18:42:52.523Z,98555.09
2024-03-12T18:45:24.113Z,98558.06
2024-03-12T18:47:54.524Z,98559.06
2024-03-12T18:50:25.985Z,98556.78
2024-03-12T18:52:54.170Z,98562.78
2024-03-12T18:55:23.341Z,98562.78
2024-03-12T18:57:52.073Z,98562.22
2024-03-12T19:00:21.104Z,98572.31
2024-03-12T19:02:52.036Z,98571.28
2024-03-12T19:05:23.555Z,98570.03
2024-03-12T19:07:52.763Z,98580.31
2024-03-12T19:10:21.822Z,98581.50
2024-03-12T19:12:50.535Z,98588.09
2024-03-12T19:15:22.880Z,98585.22
2024-03-12T19:17:52.184Z,98589.56
2024-03-12T19:20:22.461Z,98594.72
2024-03-12T19:22:51.958Z,98588.69
2024-03-12T19:25:20.806Z,98592.38
2024-03-12T19:27:51.344Z,98597.72
2024-03-12T19:30:20.504Z,98601.25
2024-03-12T19:32:51.499Z,98599.63
2024-03-12T19:35:20.668Z,98607.53
2024-03-12T19:37:49.728Z,98604.78
2024-03-12T19:40:18.378Z,98606.03
2024-03-12T19:42:49.915Z,98608.50
2024-03-12T19:45:25.014Z,98604.84
2024-03-12T19:47:53.700Z,98607.59
2024-03-12T19:50:25.771Z,98608.59
2024-03-12T19:52:56.050Z,98614.56
2024-03-12T19:55:30.681Z,98621.44
2024-03-12T19:58:01.573Z,98625.00
2024-03-12T20:00:36.480Z,98626.66
2024-03-12T20:03:06.512Z,98622.91
2024-03-12T20:05:37.178Z,98628.22
2024-03-12T20:08:09.938Z,98626.38
2024-03-12T20:10:38.518Z,98629.50
2024-03-12T20:13:06.981Z,98632.56
2024-03-12T20:15:37.997Z,98623.06
2024-03-12T20:18:07.601Z,98623.91
2024-03-12T20:20:36.895Z,98631.97
2024-03-12T20:23:06.940Z,98636.34
2024-03-12T20:25:35.642Z,98639.66
2024-03-12T20:28:10.524Z,98640.03
2024-03-12T20:30:40.646Z,98641.63
2024-03-12T20:33:09.995Z,98647.44
2024-03-12T20:35:44.544Z,98654.97
2024-03-12T20:38:15.096Z,98653.06
2024-03-12T20:40:44.215Z,98650.56
2024-03-12T20:43:12.814Z,98655.34
2024-03-12T20:45:41.080Z,98655.38
2024-03-12T20:48:12.398Z,98653.28
2024-03-12T20:50:41.257Z,98658.88
2024-03-12T20:53:11.319Z,98655.97
2024-03-12T20:55:40.452Z,98654.69
2024-03-12T20:58:08.653Z,98659.25
2024-03-12T21:00:39.116Z,98662.38
2024-03-12T21:03:10.591Z,98663.84
2024-03-12T21:05:40.180Z,98666.16
2024-03-12T21:08:08.453Z,98658.31
2024-03-12T21:10:38.997Z,98663.88
2024-03-12T21:13:07.148Z,98662.06
2024-03-12T21:15:36.224Z,98669.31
2024-03-12T21:18:07.123Z,98666.63
2024-03-12T21:20:35.543Z,98668.25
2024-03-12T21:23:09.568Z,98671.59
2024-03-12T21:25:37.890Z,98668.69
2024-03-12T21:28:06.966Z,98669.50
2024-03-12T21:30:36.116Z,98670.78
2024-03-12T21:33:04.885Z,98675.31
2024-03-12T21:35:33.212Z,98676.09
2024-03-12T21:38:01.108Z,98678.19
2024-03-12T21:40:30.701Z,98681.91
2024-03-12T21:42:58.729Z,98677.56
2024-03-12T21:45:27.052Z,98682.75
2024-03-12T21:47:55.590Z,98681.13
2024-03-12T21:50:23.859Z,98680.31
2024-03-12T21:52:52.032Z,98686.47
2024-03-12T21:55:21.056Z,98691.84
2024-03-12T21:57:49.965Z,98686.91
2024-03-12T22:00:25.457Z,98694.31
2024-03-12T22:02:53.636Z,98691.84
2024-03-12T22:05:21.754Z,98699.13
2024-03-12T22:07:50.422Z,98694.34
2024-03-12T22:10:19.114Z,98691.63
2024-03-12T22:12:47.979Z,98688.34
2024-03-12T22:15:16.597Z,98692.50
2024-03-12T22:17:49.405Z,98694.13
2024-03-12T22:20:20.119Z,98693.50
2024-03-12T22:22:49.357Z,98703.66
2024-03-12T22:25:19.292Z,98687.72
2024-03-12T22:27:49.232Z,98694.13
2024-03-12T22:30:18.261Z,98689.59
2024-03-12T22:32:48.081Z,98696.00
2024-03-12T22:35:17.100Z,98691.22
2024-03-12T22:37:48.480Z,98692.25
2024-03-12T22:40:18.165Z,98696.41
2024-03-12T22:42:46.794Z,98693.50
2024-03-12T22:45:16.201Z,98691.03
2024-03-12T22:47:44.598Z,98697.03
2024-03-12T22:50:13.484Z,98696.81
2024-03-12T22:52:41.670Z,98699.72
2024-03-12T22:55:10.399Z,98700.56
2024-03-12T22:57:39.904Z,98697.44
2024-03-12T23:00:41.125Z,98698.50
2024-03-12T23:03:14.079Z,98701.59
2024-03-12T23:05:42.560Z,98695.81
2024-03-12T23:08:15.790Z,98697.25
2024-03-12T23:10:45.338Z,98700.34
2024-03-12T23:13:16.910Z,98699.09
2024-03-12T23:15:45.084Z,98700.34
2024-03-12T23:18:13.434Z,98697.03
2024-03-12T23:20:42.042Z,98700.13
2024-03-12T23:23:10.027Z,98706.56
2024-03-12T23:25:41.389Z,98701.38
2024-03-12T23:28:12.026Z,98706.75
2024-03-12T23:30:41.006Z,98705.50
2024-03-12T23:33:09.665Z,98702.22
2024-03-12T23:35:37.874Z,98699.91
2024-03-12T23:38:06.544Z,98700.75
2024-03-12T23:40:35.146Z,98700.78
2024-03-12T23:43:03.275Z,98693.94
2024-03-12T23:45:32.261Z,98693.94
2024-03-12T23:48:03.462Z,98697.22
2024-03-12T23:50:31.881Z,98698.28
2024-03-12T23:53:00.206Z,98689.41
2024-03-12T23:55:28.305Z,98687.31
2024-03-12T23:57:56.552Z,98695.59
